sensor_id;sensor_type;location;lat;lon;timestamp;pressure;altitude;pressure_sealevel;temperature;humidity
50702;BME280;36670;50.094;8.496;2023-05-02T00:01:48;100414.50;;;15.79;53.59
50702;BME280;36670;50.094;8.496;2023-05-02T00:04:14;100421.47;;;15.81;53.25
50702;BME280;36670;50.094;8.496;2023-05-02T00:06:39;100410.31;;;15.76;53.44
50702;BME280;36670;50.094;8.496;2023-05-02T00:09:06;100413.66;;;15.89;53.61
50702;BME280;36670;50.094;8.496;2023-05-02T00:11:31;100410.03;;;15.88;53.59
50702;BME280;36670;50.094;8.496;2023-05-02T00:13:56;100407.81;;;15.75;54.29
50702;BME280;36670;50.094;8.496;2023-05-02T00:16:22;100414.50;;;15.79;54.02
50702;BME280;36670;50.094;8.496;2023-05-02T00:18:47;100410.66;;;15.64;54.37
50702;BME280;36670;50.094;8.496;2023-05-02T00:21:13;100409.09;;;15.27;54.87
50702;BME280;36670;50.094;8.496;2023-05-02T00:23:38;100410.69;;;15.54;54.00
50702;BME280;36670;50.094;8.496;2023-05-02T00:26:07;100418.50;;;15.42;54.96
50702;BME280;36670;50.094;8.496;2023-05-02T00:28:33;100414.91;;;15.41;54.61
50702;BME280;36670;50.094;8.496;2023-05-02T00:30:58;100419.66;;;15.30;55.02
50702;BME280;36670;50.094;8.496;2023-05-02T00:33:23;100428.56;;;15.17;55.91
50702;BME280;36670;50.094;8.496;2023-05-02T00:35:48;100417.47;;;15.01;55.51
50702;BME280;36670;50.094;8.496;2023-05-02T00:38:15;100419.16;;;14.92;56.14
50702;BME280;36670;50.094;8.496;2023-05-02T00:40:48;100426.09;;;14.90;56.97
50702;BME280;36670;50.094;8.496;2023-05-02T00:43:15;100430.53;;;15.06;55.65
50702;BME280;36670;50.094;8.496;2023-05-02T00:45:41;100424.44;;;14.94;56.10
50702;BME280;36670;50.094;8.496;2023-05-02T00:48:08;100430.25;;;14.97;56.07
50702;BME280;36670;50.094;8.496;2023-05-02T00:50:36;100433.03;;;15.02;56.41
50702;BME280;36670;50.094;8.496;2023-05-02T00:53:03;100437.50;;;14.83;56.22
50702;BME280;36670;50.094;8.496;2023-05-02T00:55:30;100428.03;;;14.94;56.24
50702;BME280;36670;50.094;8.496;2023-05-02T00:57:55;100426.09;;;14.95;55.78
50702;BME280;36670;50.094;8.496;2023-05-02T01:00:25;100438.34;;;14.99;55.93
50702;BME280;36670;50.094;8.496;2023-05-02T01:02:59;100440.00;;;14.95;55.82
50702;BME280;36670;50.094;8.496;2023-05-02T01:05:43;100438.63;;;14.92;56.26
50702;BME280;36670;50.094;8.496;2023-05-02T01:08:19;100437.19;;;14.59;57.58
50702;BME280;36670;50.094;8.496;2023-05-02T01:11:36;100449.63;;;14.36;57.83
50702;BME280;36670;50.094;8.496;2023-05-02T01:13:42;100448.53;;;14.37;59.00
50702;BME280;36670;50.094;8.496;2023-05-02T01:16:11;100451.56;;;14.30;58.89
50702;BME280;36670;50.094;8.496;2023-05-02T01:18:40;100451.63;;;14.50;57.53
50702;BME280;36670;50.094;8.496;2023-05-02T01:21:08;100448.88;;;14.66;57.62
50702;BME280;36670;50.094;8.496;2023-05-02T01:23:42;100446.31;;;14.54;58.03
50702;BME280;36670;50.094;8.496;2023-05-02T01:29:13;100457.50;;;14.64;57.80
50702;BME280;36670;50.094;8.496;2023-05-02T01:31:41;100453.34;;;15.08;56.28
50702;BME280;36670;50.094;8.496;2023-05-02T01:34:10;100463.31;;;15.19;55.98
50702;BME280;36670;50.094;8.496;2023-05-02T01:36:37;100457.78;;;15.04;56.34
50702;BME280;36670;50.094;8.496;2023-05-02T01:39:06;100469.19;;;15.02;56.62
50702;BME280;36670;50.094;8.496;2023-05-02T01:41:34;100461.41;;;14.89;57.17
50702;BME280;36670;50.094;8.496;2023-05-02T01:44:01;100469.16;;;14.61;57.56
50702;BME280;36670;50.094;8.496;2023-05-02T01:46:30;100468.06;;;14.67;58.15
50702;BME280;36670;50.094;8.496;2023-05-02T01:48:58;100459.72;;;14.78;57.92
50702;BME280;36670;50.094;8.496;2023-05-02T01:51:41;100464.72;;;14.86;57.72
50702;BME280;36670;50.094;8.496;2023-05-02T01:54:09;100466.94;;;14.79;57.67
50702;BME280;36670;50.094;8.496;2023-05-02T01:56:37;100470.56;;;14.79;57.70
50702;BME280;36670;50.094;8.496;2023-05-02T01:59:08;100480.31;;;14.77;58.11
50702;BME280;36670;50.094;8.496;2023-05-02T02:01:36;100474.75;;;14.92;58.10
50702;BME280;36670;50.094;8.496;2023-05-02T02:04:03;100481.16;;;14.98;57.92
50702;BME280;36670;50.094;8.496;2023-05-02T02:06:28;100482.53;;;15.00;57.85
50702;BME280;36670;50.094;8.496;2023-05-02T02:08:54;100489.47;;;14.93;57.70
50702;BME280;36670;50.094;8.496;2023-05-02T02:11:25;100487.56;;;15.09;57.00
50702;BME280;36670;50.094;8.496;2023-05-02T02:13:59;100489.22;;;14.99;58.06
50702;BME280;36670;50.094;8.496;2023-05-02T02:16:29;100498.66;;;15.09;57.74
50702;BME280;36670;50.094;8.496;2023-05-02T02:18:55;100496.41;;;15.06;57.70
50702;BME280;36670;50.094;8.496;2023-05-02T02:21:22;100499.75;;;14.77;58.21
50702;BME280;36670;50.094;8.496;2023-05-02T02:23:50;100504.97;;;14.58;58.24
50702;BME280;36670;50.094;8.496;2023-05-02T02:26:19;100508.09;;;14.87;58.15
50702;BME280;36670;50.094;8.496;2023-05-02T02:28:45;100510.03;;;14.66;58.58
50702;BME280;36670;50.094;8.496;2023-05-02T02:31:11;100513.00;;;14.44;59.23
50702;BME280;36670;50.094;8.496;2023-05-02T02:33:37;100512.53;;;14.67;59.01
50702;BME280;36670;50.094;8.496;2023-05-02T02:36:19;100519.69;;;14.53;58.70
50702;BME280;36670;50.094;8.496;2023-05-02T02:39:24;100514.06;;;14.38;59.15
50702;BME280;36670;50.094;8.496;2023-05-02T02:42:02;100529.31;;;14.20;60.33
50702;BME280;36670;50.094;8.496;2023-05-02T02:47:26;100523.19;;;14.23;60.74
50702;BME280;36670;50.094;8.496;2023-05-02T02:50:18;100517.59;;;14.12;59.96
50702;BME280;36670;50.094;8.496;2023-05-02T02:53:04;100519.00;;;14.15;60.31
50702;BME280;36670;50.094;8.496;2023-05-02T02:55:44;100519.41;;;14.49;58.94
50702;BME280;36670;50.094;8.496;2023-05-02T03:00:39;100504.69;;;14.59;59.25
50702;BME280;36670;50.094;8.496;2023-05-02T03:03:06;100513.66;;;14.82;58.45
50702;BME280;36670;50.094;8.496;2023-05-02T03:05:32;100525.59;;;14.88;58.45
50702;BME280;36670;50.094;8.496;2023-05-02T03:07:58;100521.41;;;14.70;58.58
50702;BME280;36670;50.094;8.496;2023-05-02T03:10:24;100518.91;;;14.73;58.13
50702;BME280;36670;50.094;8.496;2023-05-02T03:12:49;100528.09;;;14.68;59.18
50702;BME280;36670;50.094;8.496;2023-05-02T03:15:28;100528.69;;;14.81;57.79
50702;BME280;36670;50.094;8.496;2023-05-02T03:17:57;100538.09;;;14.75;58.28
50702;BME280;36670;50.094;8.496;2023-05-02T03:20:23;100553.94;;;14.74;58.63
50702;BME280;36670;50.094;8.496;2023-05-02T03:22:48;100545.28;;;14.60;58.66
50702;BME280;36670;50.094;8.496;2023-05-02T03:25:13;100558.09;;;14.66;58.54
50702;BME280;36670;50.094;8.496;2023-05-02T03:27:38;100563.38;;;14.63;58.26
50702;BME280;36670;50.094;8.496;2023-05-02T03:30:04;100569.22;;;14.72;58.63
50702;BME280;36670;50.094;8.496;2023-05-02T03:32:30;100573.84;;;14.56;58.67
50702;BME280;36670;50.094;8.496;2023-05-02T03:34:55;100569.63;;;14.38;59.53
50702;BME280;36670;50.094;8.496;2023-05-02T03:37:23;100574.25;;;14.11;60.13
50702;BME280;36670;50.094;8.496;2023-05-02T03:39:48;100575.66;;;14.19;60.01
50702;BME280;36670;50.094;8.496;2023-05-02T03:42:13;100585.34;;;14.16;60.79
50702;BME280;36670;50.094;8.496;2023-05-02T03:44:39;100587.00;;;14.12;60.26
50702;BME280;36670;50.094;8.496;2023-05-02T03:47:04;100584.25;;;14.17;60.53
50702;BME280;36670;50.094;8.496;2023-05-02T03:49:29;100571.47;;;14.16;60.14
50702;BME280;36670;50.094;8.496;2023-05-02T03:51:54;100573.97;;;14.18;60.71
50702;BME280;36670;50.094;8.496;2023-05-02T03:54:20;100581.72;;;14.06;61.21
50702;BME280;36670;50.094;8.496;2023-05-02T03:56:45;100593.13;;;14.14;61.15
50702;BME280;36670;50.094;8.496;2023-05-02T03:59:12;100592.59;;;14.17;61.26
50702;BME280;36670;50.094;8.496;2023-05-02T04:01:37;100600.88;;;14.12;61.06
50702;BME280;36670;50.094;8.496;2023-05-02T04:04:02;100603.53;;;14.40;59.87
50702;BME280;36670;50.094;8.496;2023-05-02T04:06:28;100608.50;;;14.32;60.63
50702;BME280;36670;50.094;8.496;2023-05-02T04:08:53;100617.38;;;14.29;60.65
50702;BME280;36670;50.094;8.496;2023-05-02T04:11:18;100613.16;;;14.22;60.35
50702;BME280;36670;50.094;8.496;2023-05-02T04:13:43;100600.38;;;14.15;60.97
50702;BME280;36670;50.094;8.496;2023-05-02T04:16:09;100609.59;;;14.31;60.04
50702;BME280;36670;50.094;8.496;2023-05-02T04:18:34;100621.81;;;14.25;60.90
50702;BME280;36670;50.094;8.496;2023-05-02T04:20:59;100619.31;;;14.29;60.12
50702;BME280;36670;50.094;8.496;2023-05-02T04:23:25;100630.22;;;14.41;59.94
50702;BME280;36670;50.094;8.496;2023-05-02T04:25:54;100639.84;;;14.28;60.86
50702;BME280;36670;50.094;8.496;2023-05-02T04:28:20;100642.25;;;14.09;60.71
50702;BME280;36670;50.094;8.496;2023-05-02T04:30:47;100643.75;;;14.32;60.84
50702;BME280;36670;50.094;8.496;2023-05-02T04:33:13;100652.34;;;14.30;60.78
50702;BME280;36670;50.094;8.496;2023-05-02T04:35:39;100660.94;;;14.24;60.60
50702;BME280;36670;50.094;8.496;2023-05-02T04:38:05;100661.75;;;14.19;60.95
50702;BME280;36670;50.094;8.496;2023-05-02T04:40:31;100670.16;;;14.34;60.33
50702;BME280;36670;50.094;8.496;2023-05-02T04:42:56;100686.03;;;14.44;60.32
50702;BME280;36670;50.094;8.496;2023-05-02T04:45:21;100678.22;;;14.36;60.60
50702;BME280;36670;50.094;8.496;2023-05-02T04:47:46;100691.25;;;14.30;60.54
50702;BME280;36670;50.094;8.496;2023-05-02T04:50:12;100693.97;;;14.20;61.28
50702;BME280;36670;50.094;8.496;2023-05-02T04:52:37;100695.47;;;14.38;60.48
50702;BME280;36670;50.094;8.496;2023-05-02T04:55:02;100689.91;;;14.38;60.64
50702;BME280;36670;50.094;8.496;2023-05-02T04:57:28;100695.28;;;14.55;60.19
50702;BME280;36670;50.094;8.496;2023-05-02T04:59:53;100691.19;;;14.68;60.34
50702;BME280;36670;50.094;8.496;2023-05-02T05:02:18;100691.81;;;14.80;60.29
50702;BME280;36670;50.094;8.496;2023-05-02T05:04:43;100692.88;;;14.69;59.64
50702;BME280;36670;50.094;8.496;2023-05-02T05:07:10;100699.09;;;14.97;59.15
50702;BME280;36670;50.094;8.496;2023-05-02T05:09:35;100703.09;;;15.22;58.71
50702;BME280;36670;50.094;8.496;2023-05-02T05:12:00;100710.31;;;15.17;58.61
50702;BME280;36670;50.094;8.496;2023-05-02T05:14:26;100711.47;;;15.37;58.18
50702;BME280;36670;50.094;8.496;2023-05-02T05:16:51;100713.97;;;15.39;57.65
50702;BME280;36670;50.094;8.496;2023-05-02T05:19:16;100714.09;;;14.85;58.64
50702;BME280;36670;50.094;8.496;2023-05-02T05:21:42;100710.13;;;14.71;59.36
50702;BME280;36670;50.094;8.496;2023-05-02T05:24:07;100713.50;;;14.83;59.17
50702;BME280;36670;50.094;8.496;2023-05-02T05:26:33;100723.44;;;15.32;58.38
50702;BME280;36670;50.094;8.496;2023-05-02T05:28:58;100727.53;;;15.09;58.26
50702;BME280;36670;50.094;8.496;2023-05-02T05:31:23;100725.50;;;14.94;58.33
50702;BME280;36670;50.094;8.496;2023-05-02T05:33:49;100733.81;;;14.84;58.74
50702;BME280;36670;50.094;8.496;2023-05-02T05:36:14;100745.22;;;14.88;59.22
50702;BME280;36670;50.094;8.496;2023-05-02T05:38:40;100744.00;;;14.68;59.24
50702;BME280;36670;50.094;8.496;2023-05-02T05:41:06;100752.06;;;14.70;58.81
50702;BME280;36670;50.094;8.496;2023-05-02T05:43:32;100752.97;;;14.75;58.85
50702;BME280;36670;50.094;8.496;2023-05-02T05:45:57;100751.06;;;14.91;58.62
50702;BME280;36670;50.094;8.496;2023-05-02T05:48:23;100748.34;;;15.01;58.93
50702;BME280;36670;50.094;8.496;2023-05-02T05:50:48;100760.84;;;15.04;59.02
50702;BME280;36670;50.094;8.496;2023-05-02T05:53:14;100759.72;;;14.95;58.57
50702;BME280;36670;50.094;8.496;2023-05-02T05:55:40;100764.94;;;14.81;58.89
50702;BME280;36670;50.094;8.496;2023-05-02T05:58:06;100767.13;;;14.79;59.87
50702;BME280;36670;50.094;8.496;2023-05-02T06:00:35;100765.47;;;14.78;59.85
50702;BME280;36670;50.094;8.496;2023-05-02T06:03:01;100767.16;;;14.84;59.47
50702;BME280;36670;50.094;8.496;2023-05-02T06:05:27;100771.63;;;14.90;59.05
50702;BME280;36670;50.094;8.496;2023-05-02T06:07:52;100766.91;;;14.85;59.94
50702;BME280;36670;50.094;8.496;2023-05-02T06:10:18;100773.31;;;14.91;59.85
50702;BME280;36670;50.094;8.496;2023-05-02T06:12:43;100778.22;;;15.27;59.15
50702;BME280;36670;50.094;8.496;2023-05-02T06:15:08;100772.97;;;15.46;58.20
50702;BME280;36670;50.094;8.496;2023-05-02T06:17:34;100773.81;;;15.41;58.62
50702;BME280;36670;50.094;8.496;2023-05-02T06:19:59;100773.31;;;15.65;58.21
50702;BME280;36670;50.094;8.496;2023-05-02T06:22:24;100775.00;;;15.76;57.61
50702;BME280;36670;50.094;8.496;2023-05-02T06:24:50;100787.56;;;15.94;57.77
50702;BME280;36670;50.094;8.496;2023-05-02T06:27:15;100787.31;;;16.01;57.38
50702;BME280;36670;50.094;8.496;2023-05-02T06:29:40;100794.25;;;15.93;57.32
50702;BME280;36670;50.094;8.496;2023-05-02T06:32:06;100793.16;;;15.99;56.94
50702;BME280;36670;50.094;8.496;2023-05-02T06:34:31;100795.69;;;16.06;57.20
50702;BME280;36670;50.094;8.496;2023-05-02T06:36:59;100786.75;;;16.40;56.16
50702;BME280;36670;50.094;8.496;2023-05-02T06:39:25;100795.38;;;16.59;55.91
50702;BME280;36670;50.094;8.496;2023-05-02T06:41:50;100795.38;;;16.59;55.86
50702;BME280;36670;50.094;8.496;2023-05-02T06:44:15;100798.94;;;16.96;54.73
50702;BME280;36670;50.094;8.496;2023-05-02T06:46:41;100797.53;;;16.98;54.50
50702;BME280;36670;50.094;8.496;2023-05-02T06:49:06;100801.25;;;17.49;53.96
50702;BME280;36670;50.094;8.496;2023-05-02T06:51:31;100812.13;;;17.50;52.56
50702;BME280;36670;50.094;8.496;2023-05-02T06:53:57;100816.97;;;18.24;52.22
50702;BME280;36670;50.094;8.496;2023-05-02T06:56:23;100816.25;;;18.42;49.43
50702;BME280;36670;50.094;8.496;2023-05-02T06:58:50;100827.22;;;18.39;50.75
50702;BME280;36670;50.094;8.496;2023-05-02T07:01:15;100820.34;;;18.85;50.02
50702;BME280;36670;50.094;8.496;2023-05-02T07:03:40;100824.09;;;19.04;49.43
50702;BME280;36670;50.094;8.496;2023-05-02T07:06:05;100833.47;;;19.14;48.51
50702;BME280;36670;50.094;8.496;2023-05-02T07:08:31;100831.84;;;18.83;48.19
50702;BME280;36670;50.094;8.496;2023-05-02T07:10:56;100843.69;;;18.40;48.76
50702;BME280;36670;50.094;8.496;2023-05-02T07:13:21;100834.22;;;17.97;48.89
50702;BME280;36670;50.094;8.496;2023-05-02T07:15:47;100839.31;;;17.84;49.51
50702;BME280;36670;50.094;8.496;2023-05-02T07:18:12;100845.44;;;17.81;49.82
50702;BME280;36670;50.094;8.496;2023-05-02T07:20:37;100850.31;;;17.65;50.78
50702;BME280;36670;50.094;8.496;2023-05-02T07:23:04;100850.38;;;17.50;50.58
50702;BME280;36670;50.094;8.496;2023-05-02T07:25:29;100860.16;;;17.42;50.94
50702;BME280;36670;50.094;8.496;2023-05-02T07:27:55;100867.34;;;17.58;50.79
50702;BME280;36670;50.094;8.496;2023-05-02T07:30:20;100863.44;;;17.65;50.47
50702;BME280;36670;50.094;8.496;2023-05-02T07:32:45;100864.03;;;17.56;50.69
50702;BME280;36670;50.094;8.496;2023-05-02T07:35:10;100869.91;;;17.50;50.29
50702;BME280;36670;50.094;8.496;2023-05-02T07:37:36;100873.34;;;17.21;50.74
50702;BME280;36670;50.094;8.496;2023-05-02T07:40:02;100873.09;;;17.12;51.26
50702;BME280;36670;50.094;8.496;2023-05-02T07:42:28;100876.44;;;17.19;51.76
50702;BME280;36670;50.094;8.496;2023-05-02T07:44:54;100871.09;;;17.33;51.01
50702;BME280;36670;50.094;8.496;2023-05-02T07:47:19;100872.44;;;17.41;51.25
50702;BME280;36670;50.094;8.496;2023-05-02T07:49:49;100861.63;;;17.29;51.22
50702;BME280;36670;50.094;8.496;2023-05-02T07:52:15;100873.88;;;17.28;50.65
50702;BME280;36670;50.094;8.496;2023-05-02T07:54:40;100874.41;;;17.46;50.52
50702;BME280;36670;50.094;8.496;2023-05-02T07:57:06;100884.78;;;17.25;51.09
50702;BME280;36670;50.094;8.496;2023-05-02T07:59:32;100885.94;;;17.08;51.63
50702;BME280;36670;50.094;8.496;2023-05-02T08:01:58;100878.13;;;17.10;51.59
50702;BME280;36670;50.094;8.496;2023-05-02T08:04:23;100886.53;;;17.05;50.98
50702;BME280;36670;50.094;8.496;2023-05-02T08:06:49;100897.66;;;16.84;51.34
50702;BME280;36670;50.094;8.496;2023-05-02T08:09:14;100890.69;;;16.82;51.40
50702;BME280;36670;50.094;8.496;2023-05-02T08:11:39;100894.31;;;16.98;51.26
50702;BME280;36670;50.094;8.496;2023-05-02T08:14:04;100909.09;;;16.57;52.07
50702;BME280;36670;50.094;8.496;2023-05-02T08:16:30;100903.78;;;16.71;52.06
50702;BME280;36670;50.094;8.496;2023-05-02T08:18:55;100903.53;;;16.62;52.40
50702;BME280;36670;50.094;8.496;2023-05-02T08:21:21;100890.69;;;17.02;51.85
50702;BME280;36670;50.094;8.496;2023-05-02T08:23:47;100899.63;;;17.10;52.19
50702;BME280;36670;50.094;8.496;2023-05-02T08:26:12;100903.47;;;17.29;51.32
50702;BME280;36670;50.094;8.496;2023-05-02T08:28:37;100900.47;;;16.95;51.55
50702;BME280;36670;50.094;8.496;2023-05-02T08:31:03;100906.31;;;17.03;51.52
50702;BME280;36670;50.094;8.496;2023-05-02T08:33:28;100913.28;;;17.06;51.40
50702;BME280;36670;50.094;8.496;2023-05-02T08:35:53;100921.34;;;17.13;50.62
50702;BME280;36670;50.094;8.496;2023-05-02T08:38:18;100927.50;;;16.79;51.96
50702;BME280;36670;50.094;8.496;2023-05-02T08:40:44;100922.47;;;16.86;52.06
50702;BME280;36670;50.094;8.496;2023-05-02T08:43:12;100930.84;;;16.81;51.75
50702;BME280;36670;50.094;8.496;2023-05-02T08:45:43;100932.28;;;16.88;52.20
50702;BME280;36670;50.094;8.496;2023-05-02T08:48:10;100926.69;;;16.99;52.59
50702;BME280;36670;50.094;8.496;2023-05-02T08:50:40;100935.91;;;16.99;51.51
50702;BME280;36670;50.094;8.496;2023-05-02T08:53:08;100939.22;;;16.70;52.38
50702;BME280;36670;50.094;8.496;2023-05-02T08:55:36;100950.94;;;16.83;51.62
50702;BME280;36670;50.094;8.496;2023-05-02T08:58:04;100943.91;;;16.29;52.84
50702;BME280;36670;50.094;8.496;2023-05-02T09:00:30;100948.69;;;16.64;52.29
50702;BME280;36670;50.094;8.496;2023-05-02T09:03:04;100948.41;;;16.55;52.47
50702;BME280;36670;50.094;8.496;2023-05-02T09:05:32;100952.88;;;16.77;51.60
50702;BME280;36670;50.094;8.496;2023-05-02T09:08:03;100956.50;;;16.83;52.15
50702;BME280;36670;50.094;8.496;2023-05-02T09:10:29;100964.59;;;17.10;51.77
50702;BME280;36670;50.094;8.496;2023-05-02T09:12:54;100952.84;;;17.39;51.45
50702;BME280;36670;50.094;8.496;2023-05-02T09:15:20;100953.28;;;17.77;50.56
50702;BME280;36670;50.094;8.496;2023-05-02T09:17:46;100956.63;;;17.79;50.83
50702;BME280;36670;50.094;8.496;2023-05-02T09:20:14;100965.00;;;18.39;49.00
50702;BME280;36670;50.094;8.496;2023-05-02T09:22:50;100961.75;;;18.67;47.95
50702;BME280;36670;50.094;8.496;2023-05-02T09:25:16;100960.66;;;18.68;47.76
50702;BME280;36670;50.094;8.496;2023-05-02T09:27:55;100972.97;;;18.17;48.16
50702;BME280;36670;50.094;8.496;2023-05-02T09:30:22;100971.56;;;18.19;48.25
50702;BME280;36670;50.094;8.496;2023-05-02T09:32:49;100974.06;;;18.26;48.00
50702;BME280;36670;50.094;8.496;2023-05-02T09:35:20;100976.31;;;18.19;48.16
50702;BME280;36670;50.094;8.496;2023-05-02T09:37:57;100979.00;;;18.34;48.20
50702;BME280;36670;50.094;8.496;2023-05-02T09:40:23;100968.53;;;18.11;48.03
50702;BME280;36670;50.094;8.496;2023-05-02T09:42:49;100974.28;;;18.35;47.83
50702;BME280;36670;50.094;8.496;2023-05-02T09:45:22;100968.53;;;18.11;48.24
50702;BME280;36670;50.094;8.496;2023-05-02T09:47:49;100973.47;;;18.29;47.74
50702;BME280;36670;50.094;8.496;2023-05-02T09:50:35;100973.81;;;18.62;47.78
50702;BME280;36670;50.094;8.496;2023-05-02T09:53:05;100972.84;;;18.82;46.99
50702;BME280;36670;50.094;8.496;2023-05-02T09:55:30;100970.22;;;18.96;46.75
50702;BME280;36670;50.094;8.496;2023-05-02T09:57:56;100974.50;;;19.47;46.50
50702;BME280;36670;50.094;8.496;2023-05-02T10:00:21;100968.63;;;19.73;43.89
50702;BME280;36670;50.094;8.496;2023-05-02T10:02:49;100974.34;;;19.63;45.20
50702;BME280;36670;50.094;8.496;2023-05-02T10:05:15;100982.22;;;19.31;45.56
50702;BME280;36670;50.094;8.496;2023-05-02T10:07:42;100974.00;;;19.40;44.61
50702;BME280;36670;50.094;8.496;2023-05-02T10:10:13;100979.22;;;19.76;45.08
50702;BME280;36670;50.094;8.496;2023-05-02T10:12:39;100976.53;;;20.33;45.03
50702;BME280;36670;50.094;8.496;2023-05-02T10:15:08;100975.03;;;20.22;43.39
50702;BME280;36670;50.094;8.496;2023-05-02T10:17:47;100985.84;;;19.32;44.20
50702;BME280;36670;50.094;8.496;2023-05-02T10:20:15;100977.97;;;19.39;43.70
50702;BME280;36670;50.094;8.496;2023-05-02T10:22:44;100976.25;;;19.67;43.31
50702;BME280;36670;50.094;8.496;2023-05-02T10:25:10;100969.59;;;20.31;43.28
50702;BME280;36670;50.094;8.496;2023-05-02T10:27:37;100967.69;;;20.83;42.28
50702;BME280;36670;50.094;8.496;2023-05-02T10:30:04;100973.84;;;20.85;40.87
50702;BME280;36670;50.094;8.496;2023-05-02T10:32:32;100979.56;;;19.45;42.45
50702;BME280;36670;50.094;8.496;2023-05-02T10:35:02;100965.50;;;19.74;42.58
50702;BME280;36670;50.094;8.496;2023-05-02T10:37:28;100970.13;;;20.33;42.09
50702;BME280;36670;50.094;8.496;2023-05-02T10:39:54;100971.63;;;20.44;42.01
50702;BME280;36670;50.094;8.496;2023-05-02T10:42:19;100959.88;;;20.23;41.86
50702;BME280;36670;50.094;8.496;2023-05-02T10:44:45;100968.28;;;20.23;42.17
50702;BME280;36670;50.094;8.496;2023-05-02T10:47:18;100961.47;;;20.67;42.76
50702;BME280;36670;50.094;8.496;2023-05-02T10:50:01;100954.56;;;20.97;40.54
50702;BME280;36670;50.094;8.496;2023-05-02T10:55:21;100946.59;;;20.86;40.95
50702;BME280;36670;50.094;8.496;2023-05-02T11:00:22;100927.28;;;21.45;39.94
50702;BME280;36670;50.094;8.496;2023-05-02T11:02:47;100937.28;;;21.93;39.88
50702;BME280;36670;50.094;8.496;2023-05-02T11:05:13;100929.13;;;22.19;38.35
50702;BME280;36670;50.094;8.496;2023-05-02T11:07:38;100931.22;;;21.44;37.84
50702;BME280;36670;50.094;8.496;2023-05-02T11:12:51;100921.88;;;20.88;39.11
50702;BME280;36670;50.094;8.496;2023-05-02T11:18:01;100933.81;;;21.40;39.96
50702;BME280;36670;50.094;8.496;2023-05-02T11:20:26;100911.88;;;21.98;39.98
50702;BME280;36670;50.094;8.496;2023-05-02T11:22:53;100920.81;;;22.00;38.82
50702;BME280;36670;50.094;8.496;2023-05-02T11:25:28;100912.69;;;22.12;38.32
50702;BME280;36670;50.094;8.496;2023-05-02T11:27:54;100914.41;;;22.22;39.28
50702;BME280;36670;50.094;8.496;2023-05-02T11:30:36;100908.59;;;23.23;39.51
50702;BME280;36670;50.094;8.496;2023-05-02T11:35:30;100912.69;;;22.49;36.24
50702;BME280;36670;50.094;8.496;2023-05-02T11:38:10;100907.41;;;21.83;36.68
50702;BME280;36670;50.094;8.496;2023-05-02T11:40:36;100907.41;;;21.97;36.87
50702;BME280;36670;50.094;8.496;2023-05-02T11:43:12;100907.63;;;22.01;36.81
50702;BME280;36670;50.094;8.496;2023-05-02T11:45:37;100907.78;;;22.04;36.46
50702;BME280;36670;50.094;8.496;2023-05-02T11:48:10;100911.38;;;21.68;36.53
50702;BME280;36670;50.094;8.496;2023-05-02T11:51:00;100905.16;;;22.36;37.04
50702;BME280;36670;50.094;8.496;2023-05-02T11:53:29;100911.25;;;23.06;36.25
50702;BME280;36670;50.094;8.496;2023-05-02T11:56:05;100897.44;;;23.18;36.05
50702;BME280;36670;50.094;8.496;2023-05-02T11:58:31;100901.31;;;22.77;36.05
50702;BME280;36670;50.094;8.496;2023-05-02T12:00:59;100896.16;;;22.70;35.66
50702;BME280;36670;50.094;8.496;2023-05-02T12:03:35;100894.09;;;22.84;35.22
50702;BME280;36670;50.094;8.496;2023-05-02T12:06:12;100894.00;;;22.98;35.09
50702;BME280;36670;50.094;8.496;2023-05-02T12:08:39;100897.28;;;22.69;34.70
50702;BME280;36670;50.094;8.496;2023-05-02T12:11:04;100908.59;;;22.78;35.19
50702;BME280;36670;50.094;8.496;2023-05-02T12:13:31;100915.72;;;22.53;35.58
50702;BME280;36670;50.094;8.496;2023-05-02T12:15:56;100927.06;;;21.97;37.24
50702;BME280;36670;50.094;8.496;2023-05-02T12:18:23;100931.88;;;21.41;38.53
50702;BME280;36670;50.094;8.496;2023-05-02T12:20:50;100932.97;;;21.26;38.20
50702;BME280;36670;50.094;8.496;2023-05-02T12:23:18;100934.81;;;21.17;38.60
50702;BME280;36670;50.094;8.496;2023-05-02T12:25:44;100927.22;;;20.32;39.55
50702;BME280;36670;50.094;8.496;2023-05-02T12:28:09;100932.44;;;20.20;39.95
50702;BME280;36670;50.094;8.496;2023-05-02T12:30:36;100938.34;;;19.99;40.04
50702;BME280;36670;50.094;8.496;2023-05-02T12:33:06;100937.91;;;20.30;40.56
50702;BME280;36670;50.094;8.496;2023-05-02T12:35:32;100937.66;;;20.64;40.35
50702;BME280;36670;50.094;8.496;2023-05-02T12:38:16;100940.75;;;21.15;39.32
50702;BME280;36670;50.094;8.496;2023-05-02T12:40:46;100939.91;;;20.62;39.35
50702;BME280;36670;50.094;8.496;2023-05-02T12:43:12;100940.91;;;20.91;39.85
50702;BME280;36670;50.094;8.496;2023-05-02T12:45:37;100942.66;;;21.20;40.01
50702;BME280;36670;50.094;8.496;2023-05-02T12:48:26;100946.84;;;20.89;38.96
50702;BME280;36670;50.094;8.496;2023-05-02T12:50:53;100954.25;;;20.61;39.56
50702;BME280;36670;50.094;8.496;2023-05-02T12:53:41;100952.88;;;20.96;39.33
50702;BME280;36670;50.094;8.496;2023-05-02T12:56:08;100946.97;;;20.98;39.70
50702;BME280;36670;50.094;8.496;2023-05-02T12:58:44;100955.63;;;20.83;37.89
50702;BME280;36670;50.094;8.496;2023-05-02T13:01:11;100950.16;;;20.91;37.62
50702;BME280;36670;50.094;8.496;2023-05-02T13:03:37;100956.97;;;21.18;38.21
50702;BME280;36670;50.094;8.496;2023-05-02T13:06:02;100957.38;;;20.59;39.46
50702;BME280;36670;50.094;8.496;2023-05-02T13:08:27;100954.03;;;20.19;40.42
50702;BME280;36670;50.094;8.496;2023-05-02T13:10:53;100957.44;;;20.16;41.12
50702;BME280;36670;50.094;8.496;2023-05-02T13:13:18;100956.19;;;19.79;41.27
50702;BME280;36670;50.094;8.496;2023-05-02T13:15:43;100953.72;;;19.53;41.74